Patrick Schuster

Recruteur - VfB Stuttgart
17 Avr 2029
Mardi
Processus

Personnalité

Adaptabilité (20) Ambition (9) Controverse (17) Loyauté (5) Pression (13) Professionnalisme (15) Sportivité (16) Tempérament (13)

Profil

Style d'entraînement Démocratique
Diplôme National A
Détermination 8
Gestion des joueurs 15
Motivation 15
Discipline 14
Satisfaction professionnelle
100%
Fatigue
0%
Rôle Recruteur
Salaire 118.9K p/s
Contrat 14.03.2030

Performance

Comportement Bon
Efficacité de l'entraînement
56%
Développement des joueurs
60%
Prévention des blessures
45%
Mise en place tactique
75%

Suivi en cours

73
Joueur Club Statut Capacité Confiance Observé Dernière observation Dernier vote
Bernardo Lima Porto Actif 120 / 129 40% 2 31.01.2029 -
Tylel Tati Valenciennes Actif 135 / 135 40% 3 31.01.2029 -
Rafael Mota Sporting CP Actif 123 / 123 40% 1 31.01.2029 -
Anton Kade Heidenheim Perdu 142 / 143 70% 1 29.01.2029 -
Juho Kilo Köln Perdu 121 / 121 70% 1 29.01.2029 -
Lamine Bèye Alverca Actif 111 / 131 40% 2 23.01.2029 -
Honest Ahanor Udinese Actif 141 / 146 40% 1 23.01.2029 -
Lucas Jetten KV Oostende Négociation 120 / 125 40% 1 23.01.2029 -
Giovanni Cantizano Rosario Central Actif 116 / 115 40% 1 23.01.2029 -
Oumar Camara Vitoria Guimaraes Actif 144 / 148 40% 1 23.01.2029 -
Lennard Maloney Mainz 05 Perdu 140 / 140 70% 1 22.01.2029 -
Mio Zimmermann Luzern Actif 113 / 109 40% 1 18.01.2029 -
Trey Nyoni Liverpool Actif 143 / 159 40% 1 18.01.2029 -
Nejc Viher NK Maribor Actif 130 / 120 40% 1 16.01.2029 -
Jussef Nasrawe SV Ried Actif 115 / 113 40% 1 16.01.2029 -
Jorthy Mokio Ajax Actif 145 / 139 40% 2 12.01.2029 -
Jorge Salinas Racing Santander Actif 141 / 140 40% 2 12.01.2029 -
Marc Bernal Barcelona Actif 151 / 156 40% 1 12.01.2029 -
Marius Louër Stade Lavallois Actif 115 / 121 40% 3 10.01.2029 -
Joane Gadou Borussia Dortmund Actif 132 / 150 40% 1 10.01.2029 -
Jens Mathijsen Roda Actif 116 / 122 40% 1 10.01.2029 -
Miguel Figueiredo Benfica Actif 122 / 132 40% 1 09.01.2029 -
Matías Magdaleno Estudiantes Actif 118 / 127 40% 2 08.01.2029 -
Nikola Simić Partizan Actif 123 / 143 40% 1 08.01.2029 -
Raul Kumar Istra 1961 Actif 124 / 144 40% 1 06.01.2029 -
Matias Siltanen Kalmar FF Actif 135 / 129 40% 2 04.01.2029 -
Ayyoub Bouaddi West Bromwich Albion Actif 156 / 164 40% 1 04.01.2029 -
Luis Otávio Sporting Kansas City Actif 121 / 121 40% 2 01.01.2029 -
Konstantinos Karetsas Borussia Dortmund Actif 138 / 133 76% 1 01.01.2029 Approuver
Jan Bürger Burton Albion Actif 120 / 120 40% 1 01.01.2029 -
Giovanni Cantizano Rosario Central Perdu 118 / 125 40% 1 01.01.2029 -
Lisandro Piñero Banfield Perdu 129 / 135 40% 1 01.01.2029 -
Jacob Peter Hödl Sturm Graz Actif 122 / 122 40% 3 18.07.2028 -
Alexander Røssing-Lelesiit St. Pauli Actif 119 / 134 40% 1 12.07.2028 -
Christian Kofane Bayer Leverkusen Actif 151 / 159 40% 1 12.07.2028 -
Jamal Jimoh-Aloba Northampton Town Actif 120 / 129 40% 1 12.07.2028 -
Aarón Ochoa Málaga Actif 127 / 131 40% 2 04.07.2028 -
Sidiki Chérif Coventry City Actif 144 / 133 40% 1 04.07.2028 -
Buba Sangaré Elche Actif 129 / 146 40% 1 04.07.2028 -
Mathis Jangeal Chaves Actif 104 / 116 40% 1 02.06.2028 -
Josh King Fulham Actif 137 / 147 40% 1 02.06.2028 -
Mao Hosoya Besiktas Actif 134 / 135 58% 1 01.06.2028 Approuver
Moussa Diaby Al-Ittihad Actif 147 / 147 68% 1 01.06.2028 Approuver
Luther Singh LA Galaxy Actif 131 / 131 66% 1 01.06.2028 Approuver
Antonio Gomis Vizela Actif 140 / 131 40% 1 25.01.2028 -
Simon Simoni Luzern Actif 121 / 128 40% 1 25.01.2028 -
Raphael Posch Mattersburg Actif 113 / 125 40% 1 30.08.2027 -
Jens Hjertø-Dahl Hull City Actif 118 / 129 40% 1 30.08.2027 -
Ayden Heaven Manchester United Actif 153 / 151 40% 1 28.08.2027 -
Pau Cubarsí Barcelona Actif 168 / 165 40% 2 26.08.2027 -
Jorrel Hato Chelsea Actif 143 / 156 40% 1 26.08.2027 -
Yusuf Akçiçek Al-Hilal Actif 140 / 130 40% 4 22.08.2027 -
Mohamed Seck AS Roma Actif 101 / 113 40% 1 21.08.2027 -
Henrique Carmo CSKA Moscow Actif 142 / 143 40% 2 19.08.2027 -
Alessandro Romano AS Roma Actif 114 / 113 40% 1 19.08.2027 -
Ishé Samuels-Smith Chelsea Actif 119 / 119 40% 4 15.08.2027 -
Dani Díaz Real Sociedad Actif 114 / 127 40% 1 09.08.2027 -
Martim Cunha Porto Actif 110 / 111 40% 3 07.08.2027 -
Alexis Fretes Libertad Actif 120 / 107 40% 4 26.07.2027 -
Marquinhos Rubin Actif 128 / 128 68% 1 26.07.2027 Approuver
Sanel Šaljić Austria Wien Actif 111 / 123 40% 2 24.07.2027 -
Antoñito Cordero Newcastle United Actif 113 / 126 40% 1 22.07.2027 -
Josh Nichols Arsenal Actif 105 / 121 40% 4 05.07.2027 -
Ulises Giménez River Plate Actif 100 / 129 40% 1 01.07.2027 -
Luca Raffin Rosario Central Actif 98 / 117 40% 1 01.07.2027 -
Juan Manuel Villalba Estudiantes Actif 104 / 130 40% 1 24.06.2027 -
Paulinho Barcelona Actif 140 / 140 66% 1 14.06.2027 Approuver
Petik Manukyan Urartu Actif 116 / 116 40% 1 09.06.2027 -
Leon Grgić Red Bull Salzburg Actif 131 / 123 40% 1 04.06.2027 -
Lionel Messi Chelsea Actif 171 / 171 67% 1 01.06.2027 Approuver
Johannes Eggestein VfB Stuttgart Actif 125 / 125 67% 1 01.06.2027 Approuver
Joseph Paintsil Feyenoord Actif 130 / 130 67% 1 01.06.2027 Approuver
Francis Amuzu Eintracht Frankfurt Actif 129 / 129 67% 1 01.06.2027 Approuver